This is the latest recevied weather packets stored in our database for station/object W4MLN-3. If no packets are shown the sender has not sent any weather packets the latest 10 day(s).
| Time | Temp. | Humidity | Pressure | Rain* | Wind** | Luminosity | Snow |
|---|---|---|---|---|---|---|---|
| 1777992003 | 19.44° C | 38% | 1016.2 hPa | 0 mm | - | - | - |
| 1777991703 | 19.44° C | 37% | 1016.2 hPa | 0 mm | - | - | - |
| 1777991403 | 19.44° C | 40% | 1016.1 hPa | 0 mm | - | - | - |
| 1777991103 | 18.89° C | 40% | 1016.1 hPa | 0 mm | - | - | - |
| 1777990824 | 18.89° C | 42% | 1016 hPa | 0 mm | - | - | - |
| 1777990503 | 18.33° C | 44% | 1016 hPa | 0 mm | - | - | - |
| 1777989903 | 18.33° C | 44% | 1016 hPa | 0 mm | - | - | - |
| 1777989624 | 18.33° C | 47% | 1015.9 hPa | 0 mm | - | - | - |
| 1777989303 | 18.33° C | 45% | 1015.9 hPa | 0 mm | - | - | - |
| 1777989003 | 17.78° C | 47% | 1015.7 hPa | 0 mm | - | - | - |
| 1777988703 | 17.78° C | 46% | 1015.7 hPa | 0 mm | - | - | - |
| 1777988424 | 17.78° C | 47% | 1015.7 hPa | 0 mm | - | - | - |
| 1777988103 | 17.22° C | 49% | 1015.7 hPa | 0 mm | - | - | - |
| 1777987803 | 16.67° C | 50% | 1015.7 hPa | 0 mm | - | - | - |
| 1777987503 | 16.67° C | 50% | 1015.8 hPa | 0 mm | - | - | - |
| 1777987203 | 16.67° C | 50% | 1015.9 hPa | 0 mm | - | - | - |
| 1777986903 | 16.67° C | 51% | 1015.8 hPa | 0 mm | - | - | - |
| 1777986603 | 16.11° C | 53% | 1015.7 hPa | 0 mm | - | - | - |
| 1777986303 | 15.56° C | 52% | 1015.8 hPa | 0 mm | - | - | - |
| 1777986024 | 15.56° C | 53% | 1015.7 hPa | 0 mm | - | - | - |
| 1777985703 | 15.56° C | 54% | 1015.7 hPa | 0 mm | - | - | - |
| 1777985403 | 15° C | 55% | 1015.7 hPa | 0 mm | - | - | - |
| 1777985104 | 15° C | 55% | 1015.7 hPa | 0 mm | - | - | - |
| 1777984824 | 14.44° C | 57% | 1015.6 hPa | 0 mm | - | - | - |
| 1777984503 | 13.89° C | 60% | 1015.6 hPa | 0 mm | - | - | - |
* Rain latest hour (hover to see other rain measurements)
** Current wind speed in m/s (hover to see current wind gust speed)